Time;durP1;ratioP1;P1;durP2;ratioP2;P2;SDS_P1;SDS_P2;PMS_P1;PMS_P2;Temp;Humidity;BMP_temperature;BMP_pressure;BME280_temperature;BME280_humidity;BME280_pressure;Samples;Min_cycle;Max_cycle;Signal;HPM_P1;HPM_P2
2022/01/23 00:00:07;;;;;;;4.87;3.60;;;;;;;-4.13;57.63;95245.53;5080642;28;20243;-62
2022/01/23 00:02:34;;;;;;;5.23;3.37;;;;;;;-4.09;57.91;95240.25;5085743;28;20231;-62
2022/01/23 00:05:06;;;;;;;4.20;3.50;;;;;;;-4.11;57.52;95244.59;5094193;28;20231;-63
2022/01/23 00:07:32;;;;;;;4.43;3.27;;;;;;;-4.09;57.59;95247.09;5084537;28;20269;-62
2022/01/23 00:09:58;;;;;;;4.03;3.63;;;;;;;-4.13;57.36;95250.69;5080759;28;20219;-62
2022/01/23 00:12:26;;;;;;;5.23;3.53;;;;;;;-4.11;57.61;95243.75;5101018;28;20192;-62
2022/01/23 00:17:36;;;;;;;4.93;4.03;;;;;;;-4.17;57.96;95252.53;5096302;28;20239;-62
2022/01/23 00:20:14;;;;;;;4.00;3.33;;;;;;;-4.11;57.94;95257.44;5098565;28;20291;-63
2022/01/23 00:30:39;;;;;;;3.30;2.97;;;;;;;-4.15;58.19;95261.00;5100872;28;20228;-63
2022/01/23 00:33:06;;;;;;;4.13;3.73;;;;;;;-4.30;58.90;95241.03;5099181;28;20215;-65
2022/01/23 00:35:34;;;;;;;4.80;3.87;;;;;;;-4.32;59.36;95263.38;5102326;28;20237;-64
2022/01/23 00:38:01;;;;;;;5.23;3.77;;;;;;;-4.25;58.87;95257.94;5118126;28;20242;-63
2022/01/23 00:40:28;;;;;;;4.27;3.47;;;;;;;-4.30;58.85;95259.84;5130976;27;20253;-63
2022/01/23 00:42:55;;;;;;;4.50;3.63;;;;;;;-4.16;58.51;95251.63;5138194;27;20237;-63
2022/01/23 00:45:28;;;;;;;4.67;3.60;;;;;;;-4.23;58.77;95248.44;5134326;27;20224;-63
2022/01/23 00:48:00;;;;;;;3.80;3.23;;;;;;;-4.21;59.72;95254.34;5122593;28;20227;-63
2022/01/23 00:50:27;;;;;;;3.93;3.40;;;;;;;-4.34;59.76;95257.44;5136367;27;20206;-66
2022/01/23 00:52:53;;;;;;;3.73;3.30;;;;;;;-4.34;59.77;95260.84;5129848;28;20210;-63
2022/01/23 00:55:18;;;;;;;3.80;3.30;;;;;;;-4.33;60.68;95264.25;5120624;28;20246;-64
2022/01/23 00:57:44;;;;;;;5.13;3.60;;;;;;;-4.36;60.54;95264.34;5122164;27;20290;-65
2022/01/23 01:00:10;;;;;;;4.73;3.30;;;;;;;-4.34;60.59;95257.44;5142279;27;20245;-66
2022/01/23 01:02:35;;;;;;;4.40;3.53;;;;;;;-4.29;60.75;95261.50;5129536;28;20223;-63
2022/01/23 01:05:03;;;;;;;5.87;3.60;;;;;;;-4.44;61.45;95247.53;5132741;27;20228;-63
2022/01/23 01:07:29;;;;;;;4.47;3.17;;;;;;;-4.30;61.44;95253.88;5140778;28;20305;-65
2022/01/23 01:09:59;;;;;;;4.77;3.53;;;;;;;-4.33;60.87;95259.09;5142334;28;20222;-62
2022/01/23 01:12:32;;;;;;;4.10;3.67;;;;;;;-4.26;61.24;95260.56;5140676;27;20190;-62
2022/01/23 01:15:23;;;;;;;4.07;3.67;;;;;;;-4.23;61.11;95270.72;5141928;27;20206;-66
2022/01/23 01:31:35;;;;;;;4.77;3.93;;;;;;;-4.33;61.91;95266.81;5146493;27;20233;-63
2022/01/23 01:34:20;;;;;;;4.93;3.50;;;;;;;-4.29;62.04;95268.38;5140934;27;20233;-63
2022/01/23 01:36:53;;;;;;;4.23;3.53;;;;;;;-4.35;61.81;95268.63;5144479;27;20199;-63
2022/01/23 01:39:23;;;;;;;4.57;3.80;;;;;;;-4.47;62.27;95267.31;5144207;27;20182;-64
2022/01/23 01:41:50;;;;;;;3.93;3.53;;;;;;;-4.40;61.67;95263.66;5139717;27;20451;-66
2022/01/23 01:44:16;;;;;;;5.67;3.80;;;;;;;-4.41;62.25;95251.72;5141930;27;20214;-64
2022/01/23 01:46:43;;;;;;;5.37;4.10;;;;;;;-4.51;62.57;95258.06;5144478;27;20218;-62
2022/01/23 01:49:09;;;;;;;3.93;3.63;;;;;;;-4.56;62.42;95258.22;5141503;27;20243;-64
2022/01/23 01:51:35;;;;;;;5.67;4.10;;;;;;;-4.50;62.62;95263.13;5141697;27;20254;-63
2022/01/23 01:54:14;;;;;;;4.90;4.40;;;;;;;-4.48;62.22;95268.22;5144184;27;20211;-63
2022/01/23 01:56:53;;;;;;;4.83;4.30;;;;;;;-4.48;62.46;95270.78;5144286;27;20242;-65
2022/01/23 02:02:55;;;;;;;5.60;4.37;;;;;;;-4.62;62.96;95278.97;5100617;28;20249;-62
2022/01/23 02:10:53;;;;;;;5.30;4.10;;;;;;;-4.52;62.08;95275.16;5083620;28;20248;-63
2022/01/23 02:13:30;;;;;;;5.23;4.30;;;;;;;-4.50;62.45;95283.66;5083052;28;20220;-62
2022/01/23 02:51:10;;;;;;;5.00;4.47;;;;;;;-4.89;62.36;95286.75;5145869;27;20225;-62
2022/01/23 02:54:05;;;;;;;5.37;4.20;;;;;;;-4.87;62.09;95290.06;5142716;27;20223;-63
2022/01/23 02:56:32;;;;;;;6.10;5.03;;;;;;;-4.83;61.90;95301.09;5145242;27;20226;-62
2022/01/23 02:59:00;;;;;;;8.27;5.40;;;;;;;-4.80;61.85;95308.66;5144692;27;20213;-62
2022/01/23 03:01:32;;;;;;;6.43;5.43;;;;;;;-4.91;61.95;95295.38;5145054;27;20220;-62
2022/01/23 03:04:08;;;;;;;5.97;5.00;;;;;;;-5.04;62.53;95297.53;5144599;27;20214;-62
2022/01/23 03:06:57;;;;;;;7.20;4.87;;;;;;;-4.99;62.10;95295.63;5143713;27;20286;-64
2022/01/23 03:12:09;;;;;;;6.83;5.10;;;;;;;-4.97;61.39;95304.13;5144272;27;20209;-62
2022/01/23 03:30:53;;;;;;;5.83;4.73;;;;;;;-4.98;61.04;95307.56;5101573;28;20235;-62
2022/01/23 03:33:19;;;;;;;6.23;4.67;;;;;;;-4.96;60.94;95313.47;5102146;28;20227;-63
2022/01/23 03:35:45;;;;;;;4.93;4.43;;;;;;;-4.95;60.82;95316.88;5102312;28;20235;-63
2022/01/23 03:38:10;;;;;;;6.03;4.80;;;;;;;-4.99;60.93;95315.31;5100848;28;20227;-62
2022/01/23 03:40:36;;;;;;;6.90;5.00;;;;;;;-4.96;60.74;95316.03;5084847;28;20231;-67
2022/01/23 03:43:10;;;;;;;7.47;5.23;;;;;;;-4.93;60.49;95320.25;5085942;28;20223;-61
2022/01/23 03:50:45;;;;;;;6.20;4.97;;;;;;;-4.88;60.91;95326.06;5099405;28;20220;-66
2022/01/23 03:53:10;;;;;;;6.63;5.03;;;;;;;-4.81;60.17;95330.09;5087344;27;20216;-62
2022/01/23 03:55:36;;;;;;;6.83;4.90;;;;;;;-4.77;59.83;95331.66;5143717;27;20286;-62
2022/01/23 03:58:02;;;;;;;6.37;4.37;;;;;;;-4.70;60.07;95327.16;5139293;27;20505;-62
2022/01/23 04:00:28;;;;;;;6.33;5.13;;;;;;;-4.74;59.79;95340.97;5144914;27;20206;-62
2022/01/23 04:02:53;;;;;;;7.03;5.03;;;;;;;-4.68;59.69;95338.19;5144675;27;20306;-62
2022/01/23 04:05:19;;;;;;;5.43;4.70;;;;;;;-4.68;59.12;95333.91;5143453;27;20218;-63
2022/01/23 04:07:46;;;;;;;5.70;4.97;;;;;;;-4.66;59.42;95344.94;5141583;27;20234;-65
2022/01/23 04:10:14;;;;;;;5.77;5.17;;;;;;;-4.63;58.98;95344.00;5144042;27;20245;-64
2022/01/23 04:18:44;;;;;;;6.53;4.60;;;;;;;-4.58;58.56;95349.81;5143634;27;20226;-62
2022/01/23 05:06:59;;;;;;;5.43;4.60;;;;;;;-4.66;57.13;95347.50;5089523;28;20215;-64
2022/01/23 05:09:26;;;;;;;5.90;4.87;;;;;;;-4.68;57.36;95357.00;5121204;28;20218;-62
2022/01/23 05:11:57;;;;;;;5.53;4.80;;;;;;;-4.71;56.99;95367.34;5143427;27;20219;-65
2022/01/23 05:14:39;;;;;;;5.70;4.73;;;;;;;-4.81;56.74;95354.88;5124143;27;20238;-64
2022/01/23 05:17:07;;;;;;;5.90;4.40;;;;;;;-4.84;57.17;95360.13;5119777;27;20255;-63
2022/01/23 05:19:34;;;;;;;4.93;4.40;;;;;;;-4.77;56.95;95372.69;5130731;27;20574;-62
2022/01/23 05:24:52;;;;;;;5.77;4.53;;;;;;;-4.70;56.81;95386.19;5125029;27;20206;-61
2022/01/23 05:27:18;;;;;;;6.13;4.73;;;;;;;-4.62;56.46;95384.19;5162670;27;20255;-60
2022/01/23 05:29:44;;;;;;;4.73;4.10;;;;;;;-4.72;56.60;95385.38;5127512;27;20247;-62
2022/01/23 05:32:12;;;;;;;5.70;3.93;;;;;;;-4.63;56.49;95390.19;5123691;27;20279;-62
2022/01/23 05:34:38;;;;;;;5.57;4.80;;;;;;;-4.62;56.61;95386.75;5123447;28;20226;-62
2022/01/23 05:37:04;;;;;;;4.57;4.00;;;;;;;-4.59;56.37;95385.81;5125814;27;20286;-62
2022/01/23 05:39:32;;;;;;;6.03;4.10;;;;;;;-4.66;56.69;95380.03;5121910;27;20202;-64
2022/01/23 05:42:05;;;;;;;5.90;4.67;;;;;;;-4.53;56.55;95381.31;5122005;28;20219;-62
2022/01/23 05:44:31;;;;;;;5.13;3.93;;;;;;;-4.55;55.96;95384.81;5132574;27;20246;-65
2022/01/23 05:46:56;;;;;;;4.60;3.87;;;;;;;-4.58;55.83;95372.91;5136125;27;20218;-62
2022/01/23 05:49:22;;;;;;;6.93;5.13;;;;;;;-4.69;56.55;95372.44;5140898;27;20230;-62
2022/01/23 05:51:48;;;;;;;4.43;3.90;;;;;;;-4.74;56.56;95371.75;5143987;27;20207;-62
2022/01/23 05:54:14;;;;;;;5.10;4.33;;;;;;;-4.76;56.68;95379.50;5143670;27;20206;-61
2022/01/23 05:56:39;;;;;;;4.90;4.27;;;;;;;-4.79;56.49;95374.47;5144416;27;20219;-62
2022/01/23 05:59:05;;;;;;;6.07;4.83;;;;;;;-4.80;56.78;95382.22;5144120;27;20214;-62
2022/01/23 06:01:30;;;;;;;5.30;4.50;;;;;;;-4.72;57.17;95380.25;5139634;27;20290;-61
2022/01/23 06:03:56;;;;;;;6.97;4.23;;;;;;;-4.79;57.18;95377.03;5145205;27;20214;-62
2022/01/23 06:06:21;;;;;;;5.37;4.20;;;;;;;-4.90;57.19;95382.53;5146184;27;20259;-63
2022/01/23 06:08:47;;;;;;;4.60;4.20;;;;;;;-4.84;56.50;95385.78;5141344;27;20218;-63
2022/01/23 06:11:12;;;;;;;5.13;4.53;;;;;;;-4.82;56.78;95386.56;5144152;27;20222;-61
2022/01/23 06:13:38;;;;;;;6.80;4.50;;;;;;;-4.79;56.91;95386.47;5143896;27;20229;-62
2022/01/23 06:16:04;;;;;;;5.17;4.40;;;;;;;-4.80;56.33;95390.75;5141205;27;20226;-62
2022/01/23 06:18:29;;;;;;;6.80;4.80;;;;;;;-4.75;56.48;95401.72;5143309;27;20210;-67
2022/01/23 06:20:55;;;;;;;5.50;4.67;;;;;;;-4.82;56.54;95386.56;5141035;27;20206;-62
2022/01/23 06:23:20;;;;;;;6.00;5.13;;;;;;;-4.81;56.41;95407.06;5144221;27;20226;-62
2022/01/23 06:25:47;;;;;;;6.07;5.20;;;;;;;-4.87;56.60;95402.94;5144216;27;20302;-63
2022/01/23 06:28:25;;;;;;;7.37;5.10;;;;;;;-4.84;56.76;95411.44;5142804;27;20238;-62
2022/01/23 06:30:51;;;;;;;6.37;4.73;;;;;;;-4.82;56.31;95409.66;5143864;27;20234;-62
2022/01/23 06:33:16;;;;;;;6.37;5.17;;;;;;;-4.80;56.73;95416.41;5142839;27;20222;-62
2022/01/23 06:35:42;;;;;;;6.03;4.47;;;;;;;-4.75;56.37;95406.84;5143769;27;20218;-62
2022/01/23 06:38:07;;;;;;;4.90;4.40;;;;;;;-4.67;56.37;95414.28;5142760;27;20222;-66
2022/01/23 06:40:33;;;;;;;5.30;4.80;;;;;;;-4.61;56.27;95406.38;5142833;27;20271;-62
2022/01/23 06:42:58;;;;;;;6.13;4.93;;;;;;;-4.47;55.84;95416.19;5141121;27;20285;-62
2022/01/23 06:45:24;;;;;;;6.00;4.53;;;;;;;-4.40;55.58;95409.97;5142156;27;20209;-61
2022/01/23 06:47:49;;;;;;;5.93;4.93;;;;;;;-4.43;56.28;95416.03;5143750;27;20230;-62
2022/01/23 06:50:15;;;;;;;6.00;4.83;;;;;;;-4.54;56.18;95400.16;5143025;27;20230;-61
2022/01/23 06:52:40;;;;;;;8.03;5.77;;;;;;;-4.38;56.38;95409.88;5141110;27;20224;-62
2022/01/23 06:55:06;;;;;;;7.47;5.73;;;;;;;-4.35;55.95;95390.09;5143827;27;20281;-63
2022/01/23 06:57:32;;;;;;;6.80;5.13;;;;;;;-4.31;55.51;95406.22;5141453;27;20278;-61
2022/01/23 06:59:57;;;;;;;6.03;5.03;;;;;;;-4.14;55.66;95400.50;5143021;27;20211;-64
2022/01/23 07:02:23;;;;;;;6.53;5.20;;;;;;;-4.12;55.04;95407.25;5141960;27;20245;-61
2022/01/23 07:04:48;;;;;;;7.53;5.70;;;;;;;-4.22;54.98;95401.63;5140063;27;20237;-62
2022/01/23 07:07:14;;;;;;;6.37;5.20;;;;;;;-4.45;55.85;95389.56;5141446;27;20219;-61
2022/01/23 07:09:39;;;;;;;6.47;5.37;;;;;;;-4.43;56.39;95392.94;5142475;27;20207;-62
2022/01/23 07:12:05;;;;;;;6.77;5.17;;;;;;;-4.45;55.86;95397.28;5134866;27;20220;-61
2022/01/23 07:14:31;;;;;;;7.43;5.60;;;;;;;-4.48;56.30;95399.13;5144344;27;20215;-62
2022/01/23 07:16:56;;;;;;;9.00;5.77;;;;;;;-4.33;55.76;95397.75;5142756;27;20226;-62
2022/01/23 07:19:22;;;;;;;6.10;5.17;;;;;;;-4.33;55.47;95401.16;5135402;27;20270;-62
2022/01/23 07:21:47;;;;;;;8.00;6.13;;;;;;;-4.31;55.53;95408.78;5137643;27;20283;-62
2022/01/23 07:24:13;;;;;;;6.97;5.63;;;;;;;-4.20;55.28;95424.66;5140393;27;20205;-62
2022/01/23 07:26:39;;;;;;;8.03;6.23;;;;;;;-4.07;54.92;95414.81;5140299;27;20227;-61
2022/01/23 07:29:06;;;;;;;7.00;6.20;;;;;;;-3.93;55.53;95428.03;5142736;27;20294;-62
2022/01/23 07:34:05;;;;;;;7.40;6.57;;;;;;;-3.72;54.71;95422.97;5143438;27;20237;-61
2022/01/23 07:36:31;;;;;;;7.03;6.03;;;;;;;-3.70;54.77;95429.75;5137084;27;20202;-62
2022/01/23 07:38:57;;;;;;;7.87;5.83;;;;;;;-3.78;54.94;95412.03;5142811;27;20553;-63
2022/01/23 07:41:23;;;;;;;8.43;6.77;;;;;;;-3.64;54.40;95413.25;5140567;27;20218;-62
2022/01/23 07:43:49;;;;;;;8.63;7.00;;;;;;;-3.59;54.44;95409.63;5139662;27;20218;-63
2022/01/23 07:46:15;;;;;;;9.53;6.40;;;;;;;-3.46;54.31;95406.59;5138857;27;20241;-63
2022/01/23 07:48:40;;;;;;;7.63;6.70;;;;;;;-3.40;54.17;95406.34;5140911;27;20234;-64
2022/01/23 07:51:06;;;;;;;8.83;6.93;;;;;;;-3.32;54.25;95406.91;5143723;27;20199;-62
2022/01/23 07:53:32;;;;;;;8.50;7.00;;;;;;;-3.33;53.21;95397.53;5140638;27;20241;-64
2022/01/23 07:55:57;;;;;;;9.03;6.67;;;;;;;-3.29;53.25;95406.78;5140525;27;20226;-63
2022/01/23 07:58:23;;;;;;;8.63;7.00;;;;;;;-3.26;52.98;95411.84;5140028;27;20233;-64
2022/01/23 08:00:48;;;;;;;9.03;6.40;;;;;;;-3.21;52.83;95407.31;5143504;27;22501;-64
2022/01/23 08:03:15;;;;;;;10.00;6.73;;;;;;;-3.26;52.78;95422.13;5141307;27;20217;-63
2022/01/23 08:05:42;;;;;;;7.30;6.60;;;;;;;-3.27;52.61;95414.44;5141594;27;20226;-61
2022/01/23 08:08:08;;;;;;;10.53;7.30;;;;;;;-3.24;53.03;95406.59;5157896;27;20214;-61
2022/01/23 08:10:33;;;;;;;8.00;6.97;;;;;;;-3.22;53.01;95423.66;5140541;27;20324;-63
2022/01/23 08:13:00;;;;;;;7.67;6.87;;;;;;;-3.33;52.76;95425.81;5139598;27;20227;-61
2022/01/23 08:15:25;;;;;;;7.80;6.37;;;;;;;-3.33;52.22;95423.25;5139530;27;20270;-61
2022/01/23 08:17:51;;;;;;;8.77;6.97;;;;;;;-3.33;52.70;95412.94;5141400;27;20237;-63
2022/01/23 08:20:17;;;;;;;8.27;6.30;;;;;;;-3.33;52.91;95418.09;5139047;27;20234;-64
2022/01/23 08:22:43;;;;;;;8.07;6.20;;;;;;;-3.21;51.94;95422.75;5141344;27;20226;-63
2022/01/23 08:25:09;;;;;;;7.93;5.57;;;;;;;-3.20;52.18;95419.31;5142195;27;20230;-65
2022/01/23 08:27:34;;;;;;;8.30;6.40;;;;;;;-2.96;51.64;95416.66;5139172;27;20227;-66
2022/01/23 08:30:00;;;;;;;6.97;5.63;;;;;;;-2.96;50.24;95424.41;5139785;27;20225;-64
2022/01/23 08:32:26;;;;;;;7.17;6.00;;;;;;;-3.11;51.44;95426.66;5137980;27;20502;-65
2022/01/23 08:34:52;;;;;;;7.40;6.00;;;;;;;-3.09;50.82;95418.06;5139688;27;20229;-66
2022/01/23 08:37:20;;;;;;;6.77;5.93;;;;;;;-3.12;51.26;95414.69;5140047;27;20241;-64
2022/01/23 08:39:46;;;;;;;7.37;5.73;;;;;;;-2.80;50.61;95420.31;5137046;27;20202;-65
2022/01/23 08:42:17;;;;;;;8.10;6.17;;;;;;;-2.69;50.42;95419.88;5138720;27;20210;-65
2022/01/23 08:44:45;;;;;;;6.77;5.87;;;;;;;-2.72;50.22;95423.41;5137753;27;20215;-64
2022/01/23 08:47:10;;;;;;;6.37;5.40;;;;;;;-2.75;49.93;95409.84;5137989;27;20229;-64
2022/01/23 08:49:44;;;;;;;9.87;6.97;;;;;;;-2.63;49.86;95400.75;5138198;27;20250;-65
2022/01/23 08:52:09;;;;;;;7.57;6.10;;;;;;;-2.51;49.47;95405.41;5138242;28;20256;-64
2022/01/23 08:54:35;;;;;;;8.47;6.47;;;;;;;-2.43;49.51;95421.38;5139321;27;20206;-65
2022/01/23 08:57:00;;;;;;;7.53;6.17;;;;;;;-2.55;49.13;95416.72;5137162;27;20206;-63
2022/01/23 08:59:26;;;;;;;8.37;6.33;;;;;;;-2.59;49.27;95405.72;5141306;28;20233;-67
2022/01/23 09:01:52;;;;;;;7.57;6.13;;;;;;;-2.41;48.66;95404.13;5136993;28;20263;-64
2022/01/23 09:04:17;;;;;;;8.13;5.60;;;;;;;-2.31;48.16;95415.72;5134596;28;20229;-63
2022/01/23 09:06:44;;;;;;;6.53;5.53;;;;;;;-2.61;48.43;95411.84;5129314;27;20274;-64
2022/01/23 09:09:16;;;;;;;6.63;5.17;;;;;;;-2.70;48.42;95415.59;5138602;28;20224;-66
2022/01/23 09:11:54;;;;;;;6.37;5.67;;;;;;;-2.94;49.57;95407.13;5139124;28;20222;-63
2022/01/23 09:14:20;;;;;;;7.37;6.13;;;;;;;-2.97;49.81;95423.53;5136351;28;20225;-64
2022/01/23 09:16:49;;;;;;;6.87;5.50;;;;;;;-2.94;49.86;95409.72;5139990;28;20227;-63
2022/01/23 09:19:16;;;;;;;6.13;4.93;;;;;;;-2.90;49.83;95424.13;5145258;27;20273;-65
2022/01/23 09:21:42;;;;;;;6.97;5.67;;;;;;;-2.93;50.00;95419.94;5139066;27;20202;-63
2022/01/23 09:24:07;;;;;;;7.50;6.23;;;;;;;-2.82;49.25;95421.25;5140668;28;20242;-64
2022/01/23 09:26:36;;;;;;;6.60;5.33;;;;;;;-2.82;49.55;95418.69;5137120;27;20215;-64
2022/01/23 09:29:11;;;;;;;6.73;5.37;;;;;;;-2.88;49.49;95412.06;5137622;28;20237;-66
2022/01/23 09:31:49;;;;;;;8.43;6.07;;;;;;;-2.97;50.11;95425.28;5137653;28;20234;-64
2022/01/23 09:34:24;;;;;;;7.97;5.07;;;;;;;-3.01;49.25;95405.72;5139631;28;20214;-65
2022/01/23 09:36:50;;;;;;;7.10;5.90;;;;;;;-2.94;49.23;95415.72;5138733;27;20266;-63
2022/01/23 09:39:17;;;;;;;6.47;5.40;;;;;;;-2.90;48.92;95417.25;5137476;28;20211;-65
2022/01/23 09:41:49;;;;;;;6.13;5.53;;;;;;;-3.00;49.74;95415.09;5114801;28;20231;-66
2022/01/23 09:44:17;;;;;;;6.20;4.83;;;;;;;-2.92;49.47;95388.16;5123340;27;20219;-63
2022/01/23 09:46:45;;;;;;;5.63;4.73;;;;;;;-2.93;49.39;95411.41;5125816;27;20230;-61
2022/01/23 09:49:14;;;;;;;7.27;5.03;;;;;;;-2.80;49.29;95389.44;5134642;27;20265;-62
2022/01/23 09:51:46;;;;;;;7.50;5.33;;;;;;;-2.72;48.80;95389.94;5120100;28;20207;-64
2022/01/23 09:54:14;;;;;;;7.20;5.27;;;;;;;-2.46;48.26;95391.44;5121332;27;20211;-63
2022/01/23 09:56:41;;;;;;;7.53;5.27;;;;;;;-2.62;48.37;95390.41;5120524;28;20253;-64
2022/01/23 09:59:14;;;;;;;6.83;5.53;;;;;;;-2.68;48.64;95381.19;5126741;27;20219;-65
2022/01/23 10:01:41;;;;;;;6.70;4.97;;;;;;;-2.69;48.35;95389.81;5121289;27;20224;-64
2022/01/23 10:04:08;;;;;;;6.23;5.00;;;;;;;-2.64;48.69;95396.53;5135190;27;20238;-63
2022/01/23 10:06:34;;;;;;;8.37;4.53;;;;;;;-2.63;48.28;95386.16;5150764;27;20211;-64
2022/01/23 10:09:00;;;;;;;7.20;4.73;;;;;;;-2.56;48.37;95384.19;5153959;27;20208;-63
2022/01/23 10:11:31;;;;;;;8.33;5.27;;;;;;;-2.65;48.14;95369.94;5121819;27;20294;-64
2022/01/23 10:13:56;;;;;;;5.90;5.30;;;;;;;-2.64;48.08;95379.34;5124814;27;20227;-61
2022/01/23 10:16:22;;;;;;;5.57;4.57;;;;;;;-2.58;48.06;95373.09;5129381;27;20230;-61
2022/01/23 10:18:48;;;;;;;6.10;4.80;;;;;;;-2.51;48.23;95372.78;5123705;27;20270;-62
2022/01/23 10:21:14;;;;;;;6.33;5.37;;;;;;;-2.36;47.95;95371.28;5122786;28;20284;-64
2022/01/23 10:23:39;;;;;;;6.80;5.30;;;;;;;-2.30;48.09;95370.19;5125071;27;20264;-64
2022/01/23 10:26:05;;;;;;;7.27;4.93;;;;;;;-2.18;47.59;95367.09;5123270;28;20300;-67
2022/01/23 10:28:33;;;;;;;6.50;4.83;;;;;;;-2.13;46.92;95348.84;5122011;27;20219;-64
2022/01/23 10:31:03;;;;;;;5.37;4.40;;;;;;;-2.26;47.45;95349.38;5122993;27;20235;-64
2022/01/23 10:33:37;;;;;;;6.53;5.23;;;;;;;-2.26;47.52;95356.28;5118700;28;20245;-64
2022/01/23 10:36:07;;;;;;;7.00;4.80;;;;;;;-2.26;46.93;95351.97;5140331;27;20289;-62
2022/01/23 10:38:53;;;;;;;6.30;4.60;;;;;;;-2.28;46.88;95363.22;5142860;27;20253;-63
2022/01/23 10:50:00;;;;;;;6.40;5.27;;;;;;;-2.17;47.91;95342.16;5140135;27;20234;-64
2022/01/23 10:52:28;;;;;;;8.67;4.73;;;;;;;-2.25;46.34;95342.47;5140043;27;20226;-60
2022/01/23 10:54:54;;;;;;;6.20;4.97;;;;;;;-2.14;46.85;95323.97;5138412;27;20267;-62
2022/01/23 10:57:20;;;;;;;6.53;4.73;;;;;;;-2.08;46.38;95342.59;5141453;27;20211;-63
2022/01/23 10:59:49;;;;;;;5.83;4.40;;;;;;;-2.16;46.19;95336.13;5141950;27;20222;-63
2022/01/23 11:02:21;;;;;;;7.63;4.57;;;;;;;-2.18;46.30;95325.03;5142389;27;20229;-63
2022/01/23 11:04:56;;;;;;;8.50;4.87;;;;;;;-2.14;45.93;95329.13;5140297;27;20226;-63
2022/01/23 11:07:23;;;;;;;7.70;4.33;;;;;;;-2.17;45.75;95326.69;5138908;27;20214;-64
2022/01/23 11:09:58;;;;;;;5.67;4.73;;;;;;;-2.24;45.89;95328.72;5139731;27;20215;-63
2022/01/23 11:12:41;;;;;;;5.60;4.40;;;;;;;-2.29;45.48;95316.03;5141571;27;20226;-63
2022/01/23 11:17:57;;;;;;;6.27;4.90;;;;;;;-2.20;45.40;95308.81;5142547;27;20237;-64
2022/01/23 11:20:30;;;;;;;7.03;4.80;;;;;;;-2.02;45.60;95300.25;5141902;27;20244;-64
2022/01/23 11:23:03;;;;;;;8.30;5.10;;;;;;;-1.89;45.41;95293.66;5140785;27;20351;-64
2022/01/23 11:25:28;;;;;;;7.63;5.27;;;;;;;-1.94;44.77;95298.16;5139503;27;20224;-66
2022/01/23 11:28:02;;;;;;;7.27;4.53;;;;;;;-1.79;45.38;95294.91;5141177;27;20238;-63
2022/01/23 11:30:43;;;;;;;5.83;4.60;;;;;;;-2.01;44.96;95305.31;5139506;27;20206;-64
2022/01/23 11:33:12;;;;;;;8.23;4.73;;;;;;;-2.16;45.68;95293.16;5127558;27;20222;-65
2022/01/23 11:35:39;;;;;;;7.53;4.83;;;;;;;-1.90;46.10;95293.69;5130618;27;20227;-66
2022/01/23 11:38:11;;;;;;;7.57;4.53;;;;;;;-1.89;46.77;95267.03;5124269;27;20215;-63
2022/01/23 11:54:06;;;;;;;7.00;4.13;;;;;;;-2.10;45.90;95261.13;5061038;28;20252;-64
2022/01/23 11:56:42;;;;;;;4.97;4.00;;;;;;;-2.03;45.89;95260.78;5045728;28;20277;-64
2022/01/23 11:59:15;;;;;;;6.63;4.10;;;;;;;-2.16;46.11;95253.69;5057756;28;20228;-64
2022/01/23 12:01:45;;;;;;;6.10;3.63;;;;;;;-2.12;46.34;95260.34;5058967;28;20241;-63
2022/01/23 12:04:20;;;;;;;4.23;3.83;;;;;;;-2.14;46.47;95262.16;5042493;28;20225;-66
2022/01/23 12:07:04;;;;;;;7.00;4.33;;;;;;;-2.34;46.21;95240.72;5042283;28;20300;-64
2022/01/23 12:09:30;;;;;;;6.00;4.33;;;;;;;-2.50;47.66;95245.69;5057509;28;20213;-68
2022/01/23 12:12:49;;;;;;;6.03;3.93;;;;;;;-2.35;47.40;95245.91;5061750;28;20221;-65
2022/01/23 12:18:21;;;;;;;5.07;3.90;;;;;;;-2.43;47.72;95251.44;5063089;28;20300;-63
2022/01/23 12:20:48;;;;;;;5.40;4.50;;;;;;;-2.36;48.45;95252.81;5060708;28;20236;-64
2022/01/23 12:23:14;;;;;;;5.40;3.87;;;;;;;-2.42;48.18;95258.25;5060470;28;20221;-64
2022/01/23 12:25:49;;;;;;;4.53;3.87;;;;;;;-2.34;48.24;95252.75;5061432;28;20225;-64
2022/01/23 12:28:25;;;;;;;5.23;3.70;;;;;;;-2.45;47.69;95255.81;5060749;28;20236;-64
2022/01/23 12:30:54;;;;;;;4.70;4.10;;;;;;;-2.50;47.57;95274.03;5106680;27;20257;-63
2022/01/23 12:33:21;;;;;;;6.10;4.10;;;;;;;-2.47;47.15;95261.00;5143634;27;20198;-64
2022/01/23 12:35:50;;;;;;;5.40;4.27;;;;;;;-2.52;48.05;95252.66;5136307;27;20219;-63
2022/01/23 12:38:17;;;;;;;5.27;4.37;;;;;;;-2.48;47.76;95250.78;5119988;28;20234;-65
2022/01/23 12:40:47;;;;;;;4.70;3.87;;;;;;;-2.41;48.10;95252.19;5117406;28;20225;-65
2022/01/23 12:43:21;;;;;;;5.50;4.07;;;;;;;-2.71;48.55;95259.50;5117589;28;20218;-65
2022/01/23 12:46:05;;;;;;;4.93;4.03;;;;;;;-2.71;48.66;95262.91;5121825;28;20240;-64
2022/01/23 12:48:38;;;;;;;7.50;4.80;;;;;;;-2.73;48.42;95254.41;5120488;28;20203;-61
2022/01/23 12:51:12;;;;;;;6.00;4.80;;;;;;;-2.66;48.36;95239.56;5118975;28;20219;-62
2022/01/23 12:53:45;;;;;;;5.90;5.27;;;;;;;-2.59;48.74;95259.00;5114603;28;20241;-64
2022/01/23 12:56:34;;;;;;;6.37;4.63;;;;;;;-2.58;48.80;95265.81;5116907;28;20294;-65
2022/01/23 12:59:09;;;;;;;7.10;4.40;;;;;;;-2.63;49.26;95251.47;5119616;28;20321;-63
2022/01/23 13:01:37;;;;;;;7.17;4.67;;;;;;;-2.52;49.38;95254.41;5115542;28;20226;-63
2022/01/23 13:04:06;;;;;;;5.73;4.20;;;;;;;-2.59;49.49;95259.00;5125876;27;20313;-63
2022/01/23 13:06:34;;;;;;;7.63;5.23;;;;;;;-2.47;48.95;95260.19;5140367;27;20232;-63
2022/01/23 13:31:46;;;;;;;6.13;4.30;;;;;;;-2.78;49.18;95279.53;5134947;27;20234;-66
2022/01/23 13:34:31;;;;;;;6.03;4.13;;;;;;;-2.80;49.89;95278.75;5122919;28;20241;-64
2022/01/23 13:37:07;;;;;;;5.63;4.13;;;;;;;-2.75;49.68;95279.41;5139062;27;20231;-65
2022/01/23 13:39:46;;;;;;;6.80;4.17;;;;;;;-2.76;49.79;95264.84;5126390;27;20210;-64
2022/01/23 13:53:14;;;;;;;5.50;4.53;;;;;;;-2.81;49.51;95282.22;5122679;27;20207;-64
2022/01/23 13:58:36;;;;;;;5.87;4.30;;;;;;;-2.66;49.75;95280.75;5123426;27;20245;-63
2022/01/23 14:01:34;;;;;;;5.30;4.40;;;;;;;-2.64;49.64;95289.25;5123904;28;20219;-66
2022/01/23 14:04:00;;;;;;;6.27;4.60;;;;;;;-2.63;49.49;95282.34;5113824;28;20245;-64
2022/01/23 14:06:26;;;;;;;5.40;4.73;;;;;;;-2.80;49.66;95283.06;5124836;27;20219;-66
2022/01/23 14:09:07;;;;;;;7.73;4.60;;;;;;;-2.70;49.91;95284.34;5132997;27;20234;-62
2022/01/23 14:11:33;;;;;;;6.77;5.23;;;;;;;-2.49;49.52;95288.56;5126297;27;20218;-62
2022/01/23 14:14:24;;;;;;;7.83;5.60;;;;;;;-2.51;49.45;95281.84;5132299;27;20229;-63
2022/01/23 14:16:52;;;;;;;8.37;5.93;;;;;;;-2.47;49.18;95280.78;5134605;27;20272;-63
2022/01/23 14:19:26;;;;;;;10.07;5.80;;;;;;;-2.52;49.51;95293.00;5142298;27;20336;-65
2022/01/23 14:21:56;;;;;;;7.00;5.53;;;;;;;-2.73;49.64;95284.47;5144976;27;20230;-66
2022/01/23 14:24:34;;;;;;;7.27;5.47;;;;;;;-2.56;49.88;95294.91;5141329;27;20267;-68
2022/01/23 14:27:06;;;;;;;8.43;5.20;;;;;;;-2.63;49.28;95292.66;5121082;28;20283;-64
2022/01/23 14:29:48;;;;;;;5.27;4.53;;;;;;;-2.80;49.64;95291.63;5153075;27;20223;-67
2022/01/23 14:32:32;;;;;;;9.87;5.97;;;;;;;-2.76;50.32;95297.47;5120810;28;20242;-65
2022/01/23 14:35:16;;;;;;;8.60;5.77;;;;;;;-2.89;50.71;95321.16;5134588;27;20237;-61
2022/01/23 14:37:44;;;;;;;6.27;5.03;;;;;;;-2.97;50.74;95306.91;5133272;27;20233;-64
2022/01/23 14:40:23;;;;;;;6.10;4.77;;;;;;;-2.95;50.85;95300.81;5120752;28;20227;-64
2022/01/23 14:43:02;;;;;;;6.50;5.13;;;;;;;-2.97;51.10;95306.91;5157552;27;20225;-65
2022/01/23 14:45:29;;;;;;;6.87;4.70;;;;;;;-3.06;51.74;95308.13;5143736;27;20209;-63
2022/01/23 14:47:55;;;;;;;7.67;5.33;;;;;;;-3.07;51.74;95306.47;5125863;27;20215;-63
2022/01/23 14:50:24;;;;;;;6.10;4.40;;;;;;;-3.10;51.69;95296.31;5121886;27;20231;-63
2022/01/23 14:52:50;;;;;;;6.23;4.97;;;;;;;-3.06;52.16;95303.00;5123308;28;20232;-64
2022/01/23 14:55:16;;;;;;;6.53;4.93;;;;;;;-3.04;52.20;95315.81;5116939;28;20223;-63
2022/01/23 14:57:44;;;;;;;6.10;4.30;;;;;;;-2.99;52.18;95303.59;5123379;28;20248;-65
2022/01/23 15:00:13;;;;;;;6.30;4.87;;;;;;;-3.11;52.12;95313.47;5117457;28;20217;-63
2022/01/23 15:02:40;;;;;;;7.40;4.90;;;;;;;-3.03;52.72;95317.47;5118457;28;20239;-62
2022/01/23 15:05:07;;;;;;;7.13;5.50;;;;;;;-3.01;52.34;95313.09;5121097;28;20226;-63
2022/01/23 15:07:35;;;;;;;6.80;5.40;;;;;;;-3.13;52.93;95322.13;5124102;28;20234;-62
2022/01/23 15:10:01;;;;;;;7.80;6.47;;;;;;;-3.26;52.85;95314.09;5129121;27;20312;-63
2022/01/23 15:12:26;;;;;;;5.83;4.70;;;;;;;-3.33;53.22;95304.94;5140875;27;20218;-62
2022/01/23 15:14:52;;;;;;;6.60;5.43;;;;;;;-3.26;53.04;95321.81;5142022;27;20244;-62
2022/01/23 15:17:20;;;;;;;6.40;5.23;;;;;;;-3.18;53.63;95329.19;5140109;27;20214;-63